createdAt,value
2022-08-25T00:00:56.147Z,68.40
2022-08-25T00:03:42.731Z,68.92
2022-08-25T00:06:30.295Z,69.33
2022-08-25T00:09:19.052Z,69.70
2022-08-25T00:12:05.988Z,69.77
2022-08-25T00:14:51.339Z,69.98
2022-08-25T00:17:36.752Z,69.72
2022-08-25T00:20:22.541Z,69.78
2022-08-25T00:23:07.908Z,69.49
2022-08-25T00:25:55.249Z,69.77
2022-08-25T00:28:40.707Z,69.96
2022-08-25T00:31:37.681Z,70.12
2022-08-25T00:34:31.885Z,69.66
2022-08-25T00:37:17.327Z,70.05
2022-08-25T00:40:07.406Z,70.09
2022-08-25T00:42:52.902Z,69.97
2022-08-25T00:45:39.550Z,70.06
2022-08-25T00:48:25.196Z,70.13
2022-08-25T00:51:14.801Z,70.33
2022-08-25T00:54:02.079Z,70.27
2022-08-25T00:56:47.424Z,69.85
2022-08-25T00:59:34.359Z,69.87
2022-08-25T01:02:19.998Z,69.94
2022-08-25T01:05:06.433Z,70.09
2022-08-25T01:07:58.527Z,69.98
2022-08-25T01:10:46.512Z,69.86
2022-08-25T01:13:45.579Z,69.42
2022-08-25T01:16:31.481Z,69.10
2022-08-25T01:19:17.601Z,69.07
2022-08-25T01:22:03.818Z,68.62
2022-08-25T01:25:00.119Z,68.67
2022-08-25T01:27:45.247Z,68.03
2022-08-25T01:30:30.695Z,68.25
2022-08-25T01:33:17.342Z,68.34
2022-08-25T01:36:03.461Z,68.11
2022-08-25T01:38:50.179Z,68.42
2022-08-25T01:41:50.526Z,68.29
2022-08-25T01:44:40.617Z,68.45
2022-08-25T01:47:26.109Z,68.58
2022-08-25T01:50:11.996Z,68.79
2022-08-25T01:53:08.111Z,68.44
2022-08-25T01:55:55.416Z,68.37
2022-08-25T01:58:46.572Z,68.32
2022-08-25T02:01:32.549Z,68.72
2022-08-25T02:04:18.259Z,68.56
2022-08-25T02:07:09.402Z,68.56
2022-08-25T02:09:54.727Z,68.71
2022-08-25T02:12:40.989Z,68.76
2022-08-25T02:15:26.476Z,69.00
2022-08-25T02:18:13.345Z,69.02
2022-08-25T02:20:59.341Z,69.68
2022-08-25T02:23:45.058Z,69.52
2022-08-25T02:26:31.603Z,69.59
2022-08-25T02:29:17.491Z,69.69
2022-08-25T02:32:08.013Z,69.96
2022-08-25T02:34:53.959Z,70.03
2022-08-25T02:37:40.509Z,70.07
2022-08-25T02:40:29.294Z,69.91
2022-08-25T02:43:15.220Z,69.95
2022-08-25T02:46:01.062Z,69.40
2022-08-25T02:48:48.029Z,69.51
2022-08-25T02:51:35.122Z,69.29
2022-08-25T02:54:21.460Z,69.52
2022-08-25T02:57:08.075Z,69.58
2022-08-25T02:59:54.496Z,69.59
2022-08-25T03:02:41.493Z,69.73
2022-08-25T03:05:27.486Z,69.62
2022-08-25T03:08:13.566Z,69.48
2022-08-25T03:10:59.216Z,69.27
2022-08-25T03:13:45.973Z,69.11
2022-08-25T03:16:33.966Z,68.84
2022-08-25T03:19:20.707Z,68.80
2022-08-25T03:22:07.005Z,68.90
2022-08-25T03:25:12.970Z,68.57
2022-08-25T03:27:58.579Z,67.65
2022-08-25T03:30:44.644Z,67.57
2022-08-25T03:33:32.830Z,68.06
2022-08-25T03:36:18.659Z,68.61
2022-08-25T03:39:04.584Z,68.81
2022-08-25T03:41:52.728Z,69.46
2022-08-25T03:44:38.478Z,69.31
2022-08-25T03:47:29.471Z,69.66
2022-08-25T03:50:16.137Z,69.73
2022-08-25T03:53:01.659Z,69.67
2022-08-25T03:55:47.955Z,69.53
2022-08-25T03:58:34.135Z,69.15
2022-08-25T04:01:20.796Z,68.87
2022-08-25T04:04:08.771Z,68.87
2022-08-25T04:06:55.163Z,69.20
2022-08-25T04:09:40.862Z,69.49
2022-08-25T04:12:26.634Z,68.95
2022-08-25T04:15:12.444Z,68.83
2022-08-25T04:17:59.161Z,68.51
2022-08-25T04:20:46.856Z,68.47
2022-08-25T04:23:33.020Z,68.66
2022-08-25T04:26:28.917Z,69.33
2022-08-25T04:29:18.152Z,69.88
2022-08-25T04:32:05.257Z,70.11
2022-08-25T04:34:52.006Z,70.48
2022-08-25T04:37:37.638Z,69.17
2022-08-25T04:40:28.913Z,68.20
2022-08-25T04:43:15.537Z,68.85
2022-08-25T04:46:09.305Z,67.76
2022-08-25T04:48:57.683Z,68.21
2022-08-25T04:51:44.919Z,68.37
2022-08-25T04:54:36.027Z,68.50
2022-08-25T04:57:23.128Z,68.14
2022-08-25T05:00:10.586Z,67.02
2022-08-25T05:02:56.269Z,65.94
2022-08-25T05:05:42.031Z,65.62
2022-08-25T05:08:29.075Z,66.00
2022-08-25T05:11:18.164Z,66.72
2022-08-25T05:14:04.545Z,65.47
2022-08-25T05:16:52.128Z,62.03
2022-08-25T05:19:38.766Z,61.13
2022-08-25T05:22:25.023Z,59.87
2022-08-25T05:25:11.297Z,59.51
2022-08-25T05:27:57.781Z,59.63
2022-08-25T05:30:45.202Z,59.42
2022-08-25T05:33:32.735Z,59.56
2022-08-25T05:36:20.830Z,58.88
2022-08-25T05:39:06.681Z,58.07
2022-08-25T05:41:53.038Z,55.49
2022-08-25T05:44:38.995Z,54.58
2022-08-25T05:47:24.819Z,53.67
2022-08-25T05:50:11.073Z,53.93
2022-08-25T05:52:57.273Z,53.06
2022-08-25T05:55:46.478Z,52.62
2022-08-25T05:58:32.869Z,51.96
2022-08-25T06:01:43.403Z,49.81
2022-08-25T06:04:32.607Z,48.67
2022-08-25T06:07:18.594Z,49.26
2022-08-25T06:10:11.636Z,48.97
2022-08-25T06:12:57.396Z,48.04
2022-08-25T06:15:44.681Z,47.78
2022-08-25T06:18:32.043Z,47.30
2022-08-25T06:21:18.715Z,47.50
2022-08-25T06:24:05.292Z,46.87
2022-08-25T06:26:51.716Z,46.99
2022-08-25T06:29:37.301Z,47.67
2022-08-25T06:32:23.876Z,46.99
2022-08-25T06:35:13.859Z,46.62
2022-08-25T06:37:59.605Z,45.29
2022-08-25T06:40:48.871Z,44.64
2022-08-25T06:43:35.179Z,45.61
2022-08-25T06:46:35.732Z,44.72
2022-08-25T06:49:22.728Z,44.44
2022-08-25T06:52:09.496Z,44.42
2022-08-25T06:54:55.307Z,43.89
2022-08-25T06:57:41.583Z,43.85
2022-08-25T07:00:30.339Z,44.97
2022-08-25T07:03:18.516Z,45.44
2022-08-25T07:06:05.279Z,45.52
2022-08-25T07:08:51.387Z,46.11
2022-08-25T07:11:38.963Z,43.91
2022-08-25T07:14:25.421Z,44.29
2022-08-25T07:17:12.667Z,43.67
2022-08-25T07:19:59.096Z,44.27
2022-08-25T07:22:45.574Z,42.34
2022-08-25T07:25:31.553Z,42.83
2022-08-25T07:28:19.350Z,41.69
2022-08-25T07:31:06.805Z,42.82
2022-08-25T07:34:14.303Z,42.02
2022-08-25T07:37:06.344Z,42.51
2022-08-25T07:39:51.952Z,41.97
2022-08-25T07:42:38.431Z,41.71
2022-08-25T07:45:30.650Z,41.33
2022-08-25T07:48:19.907Z,43.00
2022-08-25T07:51:11.008Z,42.68
2022-08-25T07:53:57.124Z,42.44
2022-08-25T07:56:43.977Z,42.02
2022-08-25T07:59:30.124Z,42.38
2022-08-25T08:02:18.494Z,41.37
2022-08-25T08:05:06.478Z,42.06
2022-08-25T08:07:56.668Z,42.18
2022-08-25T08:11:05.072Z,40.56
2022-08-25T08:13:51.201Z,41.27
2022-08-25T08:16:38.864Z,40.61
2022-08-25T08:19:25.321Z,40.75
2022-08-25T08:22:16.001Z,40.99
2022-08-25T08:25:02.723Z,39.84
2022-08-25T08:27:48.913Z,39.48
2022-08-25T08:30:36.650Z,40.93
2022-08-25T08:33:24.446Z,39.48
2022-08-25T08:36:12.601Z,38.34
2022-08-25T08:38:59.262Z,38.23
2022-08-25T08:42:22.444Z,37.78
2022-08-25T08:45:43.465Z,38.19
2022-08-25T08:48:47.222Z,38.19
2022-08-25T08:51:46.778Z,38.31
2022-08-25T08:54:38.843Z,37.18
2022-08-25T08:57:30.405Z,36.65
2022-08-25T09:00:18.236Z,35.56
2022-08-25T09:03:06.342Z,34.50
2022-08-25T09:06:00.323Z,35.07
2022-08-25T09:08:47.060Z,35.69
2022-08-25T09:12:05.457Z,35.79
2022-08-25T09:15:23.386Z,34.08
2022-08-25T09:18:24.507Z,35.62
2022-08-25T09:21:35.919Z,35.46
2022-08-25T09:24:43.964Z,34.99
2022-08-25T09:28:02.691Z,34.87
2022-08-25T09:30:54.221Z,33.57
2022-08-25T09:33:40.467Z,33.83
2022-08-25T09:36:28.554Z,32.69
2022-08-25T09:39:15.780Z,32.60
2022-08-25T09:42:03.348Z,33.56
2022-08-25T09:44:50.633Z,32.47
2022-08-25T09:47:44.770Z,34.18
2022-08-25T09:50:35.031Z,32.92
2022-08-25T09:53:23.147Z,31.14
2022-08-25T09:56:10.634Z,32.06
2022-08-25T09:59:34.236Z,31.86
2022-08-25T10:02:28.534Z,32.24
2022-08-25T10:05:26.951Z,32.78
2022-08-25T10:08:25.786Z,33.77
2022-08-25T10:11:15.543Z,33.44
2022-08-25T10:14:08.639Z,32.77
2022-08-25T10:17:13.174Z,33.31
2022-08-25T10:20:11.421Z,32.59
2022-08-25T10:23:14.114Z,31.03
2022-08-25T10:26:09.740Z,29.09
2022-08-25T10:29:03.649Z,28.74
2022-08-25T10:32:12.239Z,30.08
2022-08-25T10:35:03.376Z,30.72
2022-08-25T10:38:21.493Z,30.62
2022-08-25T10:41:07.737Z,29.48
2022-08-25T10:44:40.136Z,30.87
2022-08-25T10:47:35.498Z,31.62
2022-08-25T10:50:57.485Z,30.14
2022-08-25T10:54:13.971Z,31.00
2022-08-25T10:57:52.780Z,29.94
2022-08-25T11:00:49.297Z,30.28
2022-08-25T11:03:52.946Z,29.91
2022-08-25T11:06:53.123Z,30.69
2022-08-25T11:09:49.266Z,31.32
2022-08-25T11:12:44.896Z,30.15
2022-08-25T11:16:06.651Z,31.07
2022-08-25T11:19:07.469Z,30.60
2022-08-25T11:21:59.082Z,29.52
2022-08-25T11:25:12.398Z,30.77
2022-08-25T11:28:13.166Z,30.86
2022-08-25T11:31:02.361Z,30.21
2022-08-25T11:33:50.787Z,29.18
2022-08-25T11:36:40.763Z,29.78
2022-08-25T11:39:45.799Z,28.98
2022-08-25T11:42:50.146Z,29.83
2022-08-25T11:46:03.062Z,28.38
2022-08-25T11:49:04.492Z,30.04
2022-08-25T11:51:52.971Z,29.57
2022-08-25T11:54:45.810Z,29.28
2022-08-25T11:57:32.274Z,29.04
2022-08-25T12:00:43.187Z,28.54
2022-08-25T12:03:32.071Z,28.82
2022-08-25T12:06:20.847Z,28.78
2022-08-25T12:09:07.087Z,28.59
2022-08-25T12:11:58.624Z,29.04
2022-08-25T12:14:46.432Z,27.82
2022-08-25T12:17:39.666Z,29.68
2022-08-25T12:21:11.590Z,28.72
2022-08-25T12:24:09.669Z,29.51
2022-08-25T12:26:59.842Z,30.47
2022-08-25T12:30:05.702Z,29.91
2022-08-25T12:32:58.143Z,29.45
2022-08-25T12:36:11.121Z,29.74
2022-08-25T12:39:16.895Z,29.05
2022-08-25T12:42:06.823Z,29.95
2022-08-25T12:45:33.874Z,29.59
2022-08-25T12:48:25.443Z,31.05
2022-08-25T12:51:20.410Z,30.81
2022-08-25T12:54:47.647Z,29.91
2022-08-25T12:57:47.429Z,29.35
2022-08-25T13:00:52.875Z,29.15
2022-08-25T13:03:58.830Z,29.54
2022-08-25T13:06:59.626Z,29.99
2022-08-25T13:10:12.017Z,29.91
2022-08-25T13:13:06.916Z,29.85
2022-08-25T13:16:06.537Z,29.89
2022-08-25T13:18:59.696Z,29.92
2022-08-25T13:21:48.944Z,28.89
2022-08-25T13:24:40.762Z,28.70
2022-08-25T13:27:28.320Z,28.91
2022-08-25T13:30:28.080Z,29.72
2022-08-25T13:33:21.806Z,28.91
2022-08-25T13:36:26.110Z,29.96
2022-08-25T13:39:45.195Z,30.19
2022-08-25T13:42:29.465Z,30.62
2022-08-25T13:45:21.674Z,28.74
2022-08-25T13:48:21.009Z,28.65
2022-08-25T13:51:22.105Z,29.43
2022-08-25T13:54:23.191Z,29.28
2022-08-25T13:57:30.280Z,29.45
2022-08-25T14:01:22.245Z,29.00
2022-08-25T14:04:50.543Z,29.97
2022-08-25T14:07:39.326Z,28.79
2022-08-25T14:10:34.355Z,28.63
2022-08-25T14:13:30.929Z,28.53
2022-08-25T14:16:25.355Z,28.55
2022-08-25T14:19:19.803Z,28.85
2022-08-25T14:22:07.238Z,28.96
2022-08-25T14:24:56.774Z,29.00
2022-08-25T14:28:06.522Z,28.62
2022-08-25T14:31:00.261Z,28.45
2022-08-25T14:33:54.967Z,28.52
2022-08-25T14:36:43.015Z,28.46
2022-08-25T14:39:30.908Z,28.43
2022-08-25T14:42:19.851Z,28.17
2022-08-25T14:45:08.513Z,27.32
2022-08-25T14:48:01.869Z,28.03
2022-08-25T14:50:47.800Z,27.99
2022-08-25T14:53:36.664Z,28.50
2022-08-25T14:56:22.467Z,28.21
2022-08-25T14:59:09.835Z,28.47
2022-08-25T15:01:56.617Z,27.93
2022-08-25T15:04:51.707Z,28.36
2022-08-25T15:07:57.518Z,28.53
2022-08-25T15:10:45.156Z,28.76
2022-08-25T15:13:31.594Z,29.05
2022-08-25T15:16:34.048Z,28.66
2022-08-25T15:19:25.057Z,29.41
2022-08-25T15:22:12.108Z,28.85
2022-08-25T15:24:58.243Z,29.69
2022-08-25T15:27:47.803Z,29.94
2022-08-25T15:30:35.381Z,30.43
2022-08-25T15:33:22.939Z,31.43
2022-08-25T15:36:15.349Z,31.72
2022-08-25T15:39:01.098Z,32.04
2022-08-25T15:41:54.325Z,32.60
2022-08-25T15:44:41.117Z,33.34
2022-08-25T15:47:28.432Z,33.92
2022-08-25T15:50:25.366Z,33.44
2022-08-25T15:53:11.892Z,35.13
2022-08-25T15:56:04.891Z,37.03
2022-08-25T15:58:54.315Z,37.88
2022-08-25T16:01:41.965Z,39.14
2022-08-25T16:04:29.591Z,40.24
2022-08-25T16:07:15.874Z,41.71
2022-08-25T16:10:01.653Z,42.30
2022-08-25T16:12:49.634Z,42.49
2022-08-25T16:15:36.475Z,42.43
2022-08-25T16:18:24.040Z,43.26
2022-08-25T16:21:16.367Z,43.45
2022-08-25T16:24:07.740Z,44.12
2022-08-25T16:26:56.024Z,44.67
2022-08-25T16:29:44.383Z,45.66
2022-08-25T16:32:30.487Z,46.34
2022-08-25T16:35:17.313Z,46.73
2022-08-25T16:38:05.186Z,47.02
2022-08-25T16:40:52.512Z,47.92
2022-08-25T16:43:39.472Z,48.21
2022-08-25T16:46:25.564Z,49.34
2022-08-25T16:49:14.176Z,50.02
2022-08-25T16:52:22.542Z,50.82
2022-08-25T16:55:16.044Z,51.12
2022-08-25T16:58:03.229Z,51.38
2022-08-25T17:00:51.933Z,51.48
2022-08-25T17:03:44.042Z,51.20
2022-08-25T17:06:34.587Z,50.52
2022-08-25T17:09:23.875Z,50.58
2022-08-25T17:12:11.699Z,50.94
2022-08-25T17:14:57.913Z,51.40
2022-08-25T17:17:43.388Z,52.04
2022-08-25T17:20:30.195Z,52.29
2022-08-25T17:23:16.263Z,52.83
2022-08-25T17:26:03.551Z,54.01
2022-08-25T17:28:51.364Z,54.28
2022-08-25T17:31:40.262Z,55.40
2022-08-25T17:34:27.589Z,55.48
2022-08-25T17:37:14.055Z,56.26
2022-08-25T17:40:02.690Z,56.81
2022-08-25T17:42:49.922Z,56.61
2022-08-25T17:45:39.434Z,57.35
2022-08-25T17:48:27.513Z,57.04
2022-08-25T17:51:15.763Z,57.22
2022-08-25T17:54:02.023Z,57.92
2022-08-25T17:56:48.637Z,58.54
2022-08-25T17:59:37.256Z,58.53
2022-08-25T18:02:23.784Z,57.95
2022-08-25T18:05:10.205Z,58.24
2022-08-25T18:07:56.801Z,58.61
2022-08-25T18:10:44.839Z,58.39
2022-08-25T18:13:32.780Z,58.76
2022-08-25T18:16:19.949Z,58.83
2022-08-25T18:19:06.517Z,59.08
2022-08-25T18:21:55.584Z,59.11
2022-08-25T18:24:41.626Z,59.74
2022-08-25T18:27:28.750Z,59.75
2022-08-25T18:30:15.210Z,60.15
2022-08-25T18:33:01.493Z,60.64
2022-08-25T18:35:48.403Z,60.79
2022-08-25T18:38:58.205Z,60.46
2022-08-25T18:41:45.853Z,60.53
2022-08-25T18:44:33.659Z,60.63
2022-08-25T18:47:19.495Z,60.56
2022-08-25T18:50:12.534Z,60.58
2022-08-25T18:53:00.555Z,60.25
2022-08-25T18:55:46.945Z,61.01
2022-08-25T18:58:34.290Z,60.92
2022-08-25T19:01:22.452Z,60.87
2022-08-25T19:04:08.457Z,60.97
2022-08-25T19:06:54.613Z,60.90
2022-08-25T19:09:41.717Z,60.77
2022-08-25T19:12:27.475Z,61.07
2022-08-25T19:15:13.955Z,60.70
2022-08-25T19:18:00.851Z,60.64
2022-08-25T19:20:48.242Z,60.70
2022-08-25T19:23:38.066Z,60.54
2022-08-25T19:26:26.178Z,59.84
2022-08-25T19:29:15.780Z,60.61
2022-08-25T19:32:03.644Z,61.01
2022-08-25T19:34:51.320Z,61.58
2022-08-25T19:37:37.131Z,61.68
2022-08-25T19:40:26.363Z,62.13
2022-08-25T19:43:13.165Z,61.54
2022-08-25T19:45:59.630Z,61.40
2022-08-25T19:48:47.072Z,61.17
2022-08-25T19:51:33.032Z,61.27
2022-08-25T19:54:26.679Z,61.35
2022-08-25T19:57:27.886Z,61.59
2022-08-25T20:00:31.009Z,61.96
2022-08-25T20:03:21.015Z,62.00
2022-08-25T20:06:07.207Z,62.26
2022-08-25T20:08:58.850Z,62.55
2022-08-25T20:11:45.153Z,62.51
2022-08-25T20:14:34.887Z,62.49
2022-08-25T20:17:23.682Z,62.74
2022-08-25T20:20:14.233Z,62.56
2022-08-25T20:23:20.190Z,62.42
2022-08-25T20:26:08.133Z,62.55
2022-08-25T20:28:56.194Z,62.39
2022-08-25T20:31:41.801Z,62.21
2022-08-25T20:34:29.268Z,62.56
2022-08-25T20:37:18.698Z,62.70
2022-08-25T20:40:05.740Z,62.85
2022-08-25T20:42:55.706Z,63.01
2022-08-25T20:45:42.270Z,63.05
2022-08-25T20:48:29.575Z,63.07
2022-08-25T20:51:15.551Z,62.66
2022-08-25T20:54:04.559Z,62.90
2022-08-25T20:56:50.782Z,63.00
2022-08-25T20:59:37.064Z,63.45
2022-08-25T21:02:25.142Z,63.27
2022-08-25T21:05:11.302Z,63.71
2022-08-25T21:08:00.356Z,63.97
2022-08-25T21:10:46.864Z,64.34
2022-08-25T21:13:32.883Z,64.58
2022-08-25T21:16:21.332Z,64.84
2022-08-25T21:19:14.291Z,64.63
2022-08-25T21:22:26.211Z,64.18
2022-08-25T21:25:12.491Z,64.11
2022-08-25T21:28:01.361Z,63.80
2022-08-25T21:31:01.926Z,63.50
2022-08-25T21:34:03.008Z,63.42
2022-08-25T21:36:57.263Z,63.16
2022-08-25T21:39:43.656Z,62.63
2022-08-25T21:42:30.811Z,62.71
2022-08-25T21:45:16.315Z,62.40
2022-08-25T21:48:08.351Z,63.13
2022-08-25T21:51:13.700Z,63.35
2022-08-25T21:54:10.137Z,63.33
2022-08-25T21:57:02.495Z,63.61
2022-08-25T21:59:49.070Z,63.32
2022-08-25T22:02:35.247Z,63.12
2022-08-25T22:05:21.171Z,63.13
2022-08-25T22:08:07.516Z,63.44
2022-08-25T22:10:53.630Z,63.34
2022-08-25T22:13:41.172Z,63.52
2022-08-25T22:16:28.804Z,63.42
2022-08-25T22:19:15.902Z,63.05
2022-08-25T22:22:01.656Z,63.31
2022-08-25T22:24:47.354Z,63.37
2022-08-25T22:27:33.101Z,63.60
2022-08-25T22:30:19.297Z,64.32
2022-08-25T22:33:06.836Z,64.39
2022-08-25T22:36:00.064Z,64.15
2022-08-25T22:38:46.695Z,64.23
2022-08-25T22:41:33.009Z,64.78
2022-08-25T22:44:18.470Z,64.95
2022-08-25T22:47:03.920Z,65.28
2022-08-25T22:49:51.985Z,65.21
2022-08-25T22:52:38.284Z,65.23
2022-08-25T22:55:28.523Z,64.86
2022-08-25T22:58:14.736Z,64.83
2022-08-25T23:01:00.691Z,64.07
2022-08-25T23:03:46.020Z,64.06
2022-08-25T23:06:36.314Z,64.50
2022-08-25T23:09:22.457Z,64.49
2022-08-25T23:12:10.411Z,64.77
2022-08-25T23:14:57.836Z,65.20
2022-08-25T23:17:43.510Z,65.47
2022-08-25T23:20:47.790Z,65.30
2022-08-25T23:23:37.136Z,65.75
2022-08-25T23:26:23.504Z,65.77
2022-08-25T23:29:17.988Z,65.68
2022-08-25T23:32:07.366Z,65.96
2022-08-25T23:34:53.614Z,65.77
2022-08-25T23:37:39.383Z,65.35
2022-08-25T23:40:25.078Z,65.56
2022-08-25T23:43:12.323Z,65.28
2022-08-25T23:45:58.150Z,65.71
2022-08-25T23:48:44.221Z,65.52
2022-08-25T23:51:33.579Z,65.94
2022-08-25T23:54:20.781Z,66.15
2022-08-25T23:57:06.829Z,66.37
2022-08-25T23:59:52.523Z,66.00
